createdAt,value
2023-01-26T00:01:45.333Z,3.90
2023-01-26T00:04:12.715Z,3.90
2023-01-26T00:06:40.269Z,3.90
2023-01-26T00:09:07.104Z,3.90
2023-01-26T00:11:34.049Z,3.90
2023-01-26T00:14:01.923Z,4.00
2023-01-26T00:16:29.351Z,3.90
2023-01-26T00:18:56.290Z,3.90
2023-01-26T00:21:24.005Z,3.90
2023-01-26T00:23:51.832Z,3.90
2023-01-26T00:26:24.212Z,3.90
2023-01-26T00:28:54.150Z,3.90
2023-01-26T00:31:23.821Z,3.90
2023-01-26T00:33:52.291Z,3.90
2023-01-26T00:36:19.214Z,3.90
2023-01-26T00:38:46.282Z,3.90
2023-01-26T00:41:33.677Z,3.90
2023-01-26T00:44:02.139Z,3.90
2023-01-26T00:46:29.383Z,3.90
2023-01-26T00:48:56.654Z,3.90
2023-01-26T00:51:23.623Z,3.90
2023-01-26T00:53:50.295Z,3.90
2023-01-26T00:56:17.022Z,3.90
2023-01-26T00:58:45.753Z,3.90
2023-01-26T01:01:12.937Z,3.90
2023-01-26T01:03:39.758Z,3.90
2023-01-26T01:06:10.646Z,3.90
2023-01-26T01:08:37.349Z,3.90
2023-01-26T01:11:10.617Z,3.90
2023-01-26T01:13:38.166Z,3.80
2023-01-26T01:16:10.330Z,3.80
2023-01-26T01:18:37.912Z,3.80
2023-01-26T01:21:09.580Z,3.80
2023-01-26T01:23:38.819Z,3.80
2023-01-26T01:26:06.626Z,3.80
2023-01-26T01:28:34.872Z,3.80
2023-01-26T01:31:09.733Z,3.80
2023-01-26T01:33:36.640Z,3.80
2023-01-26T01:36:06.225Z,3.70
2023-01-26T01:38:33.948Z,3.70
2023-01-26T01:41:01.785Z,3.70
2023-01-26T01:43:28.873Z,3.70
2023-01-26T01:45:56.082Z,3.70
2023-01-26T01:48:29.943Z,3.70
2023-01-26T01:51:02.829Z,3.70
2023-01-26T01:53:37.635Z,3.70
2023-01-26T01:56:09.172Z,3.70
2023-01-26T01:58:40.527Z,3.70
2023-01-26T02:01:07.493Z,3.70
2023-01-26T02:03:35.833Z,3.70
2023-01-26T02:06:12.487Z,3.70
2023-01-26T02:08:55.006Z,3.70
2023-01-26T02:11:39.721Z,3.70
2023-01-26T02:14:10.588Z,3.70
2023-01-26T02:16:39.997Z,3.70
2023-01-26T02:19:22.540Z,3.70
2023-01-26T02:21:52.086Z,3.60
2023-01-26T02:24:34.484Z,3.60
2023-01-26T02:27:02.101Z,3.60
2023-01-26T02:29:28.891Z,3.60
2023-01-26T02:31:56.185Z,3.60
2023-01-26T02:34:25.244Z,3.60
2023-01-26T02:37:01.547Z,3.60
2023-01-26T02:39:56.716Z,3.60
2023-01-26T02:42:38.663Z,3.60
2023-01-26T02:45:06.881Z,3.60
2023-01-26T02:47:33.707Z,3.50
2023-01-26T02:50:01.826Z,3.60
2023-01-26T02:52:31.723Z,3.60
2023-01-26T02:55:17.346Z,3.60
2023-01-26T02:57:44.799Z,3.60
2023-01-26T03:00:15.113Z,3.50
2023-01-26T03:02:42.758Z,3.60
2023-01-26T03:05:09.933Z,3.60
2023-01-26T03:07:36.694Z,3.60
2023-01-26T03:10:04.539Z,3.60
2023-01-26T03:12:31.277Z,3.50
2023-01-26T03:15:17.874Z,3.50
2023-01-26T03:17:46.610Z,3.50
2023-01-26T03:20:32.357Z,3.50
2023-01-26T03:23:18.715Z,3.50
2023-01-26T03:26:03.893Z,3.50
2023-01-26T03:28:30.588Z,3.50
2023-01-26T03:30:58.971Z,3.50
2023-01-26T03:33:25.744Z,3.50
2023-01-26T03:35:54.632Z,3.50
2023-01-26T03:38:21.318Z,3.40
2023-01-26T03:41:06.606Z,3.40
2023-01-26T03:43:51.941Z,3.40
2023-01-26T03:46:37.542Z,3.40
2023-01-26T03:49:22.980Z,3.40
2023-01-26T03:52:08.470Z,3.40
2023-01-26T03:54:58.542Z,3.40
2023-01-26T03:57:25.262Z,3.40
2023-01-26T03:59:52.369Z,3.40
2023-01-26T04:02:38.751Z,3.40
2023-01-26T04:05:24.078Z,3.40
2023-01-26T04:08:09.532Z,3.40
2023-01-26T04:10:36.301Z,3.40
2023-01-26T04:13:21.874Z,3.30
2023-01-26T04:16:07.632Z,3.30
2023-01-26T04:18:53.407Z,3.20
2023-01-26T04:21:29.778Z,3.20
2023-01-26T04:23:57.972Z,3.20
2023-01-26T04:26:26.835Z,3.10
2023-01-26T04:28:56.201Z,3.10
2023-01-26T04:31:22.986Z,3.00
2023-01-26T04:33:49.727Z,3.00
2023-01-26T04:36:18.176Z,3.00
2023-01-26T04:38:44.875Z,3.00
2023-01-26T04:41:12.218Z,2.90
2023-01-26T04:43:38.912Z,3.00
2023-01-26T04:46:07.819Z,2.90
2023-01-26T04:48:35.100Z,2.90
2023-01-26T04:51:07.108Z,2.90
2023-01-26T04:53:34.546Z,2.90
2023-01-26T04:56:02.416Z,2.90
2023-01-26T04:58:29.157Z,2.90
2023-01-26T05:00:58.196Z,2.90
2023-01-26T05:03:27.694Z,2.90
2023-01-26T05:05:55.333Z,2.90
2023-01-26T05:08:22.418Z,2.90
2023-01-26T05:10:49.734Z,2.90
2023-01-26T05:13:16.448Z,3.00
2023-01-26T05:15:43.249Z,2.90
2023-01-26T05:18:11.016Z,3.00
2023-01-26T05:20:39.170Z,3.00
2023-01-26T05:23:05.924Z,3.00
2023-01-26T05:25:32.688Z,3.00
2023-01-26T05:27:59.619Z,2.90
2023-01-26T05:30:26.655Z,3.00
2023-01-26T05:32:53.428Z,3.00
2023-01-26T05:35:20.099Z,2.90
2023-01-26T05:37:46.916Z,3.00
2023-01-26T05:40:14.072Z,2.90
2023-01-26T05:42:44.823Z,3.00
2023-01-26T05:45:13.029Z,2.90
2023-01-26T05:47:39.794Z,2.90
2023-01-26T05:50:08.279Z,3.00
2023-01-26T05:52:35.181Z,3.00
2023-01-26T05:55:02.289Z,3.00
2023-01-26T05:57:29.036Z,3.10
2023-01-26T05:59:55.788Z,3.10
2023-01-26T06:02:22.771Z,3.10
2023-01-26T06:04:49.947Z,3.10
2023-01-26T06:07:16.693Z,3.10
2023-01-26T06:09:43.539Z,3.10
2023-01-26T06:12:18.877Z,3.20
2023-01-26T06:14:47.255Z,3.20
2023-01-26T06:17:15.797Z,3.20
2023-01-26T06:19:42.642Z,3.20
2023-01-26T06:22:16.374Z,3.20
2023-01-26T06:24:43.077Z,3.20
2023-01-26T06:27:18.440Z,3.20
2023-01-26T06:29:45.759Z,3.30
2023-01-26T06:32:15.718Z,3.30
2023-01-26T06:34:42.443Z,3.20
2023-01-26T06:37:09.336Z,3.30
2023-01-26T06:39:38.504Z,3.30
2023-01-26T06:42:05.350Z,3.30
2023-01-26T06:44:32.026Z,3.30
2023-01-26T06:46:58.871Z,3.30
2023-01-26T06:49:27.064Z,3.30
2023-01-26T06:52:11.440Z,3.30
2023-01-26T06:54:38.178Z,3.30
2023-01-26T06:57:04.848Z,3.50
2023-01-26T06:59:35.293Z,3.70
2023-01-26T07:02:04.140Z,3.90
2023-01-26T07:04:30.889Z,3.90
2023-01-26T07:06:57.581Z,3.90
2023-01-26T07:09:26.123Z,3.90
2023-01-26T07:11:53.093Z,3.90
2023-01-26T07:14:19.757Z,3.80
2023-01-26T07:16:46.587Z,3.80
2023-01-26T07:19:13.300Z,3.80
2023-01-26T07:21:43.826Z,3.70
2023-01-26T07:24:10.870Z,3.70
2023-01-26T07:26:38.100Z,3.70
2023-01-26T07:29:04.888Z,3.70
2023-01-26T07:31:31.846Z,3.70
2023-01-26T07:33:58.829Z,3.70
2023-01-26T07:36:25.574Z,3.70
2023-01-26T07:38:53.889Z,3.60
2023-01-26T07:41:20.602Z,3.60
2023-01-26T07:43:47.415Z,3.60
2023-01-26T07:46:14.224Z,3.60
2023-01-26T07:48:44.841Z,3.60
2023-01-26T07:51:12.358Z,3.60
2023-01-26T07:53:43.568Z,3.60
2023-01-26T07:56:13.560Z,3.60
2023-01-26T07:58:40.899Z,3.60
2023-01-26T08:01:13.657Z,3.60
2023-01-26T08:03:41.543Z,3.60
2023-01-26T08:06:12.045Z,3.60
2023-01-26T08:08:42.615Z,3.60
2023-01-26T08:11:11.959Z,3.60
2023-01-26T08:13:40.499Z,3.60
2023-01-26T08:16:12.122Z,3.60
2023-01-26T08:18:41.835Z,3.60
2023-01-26T08:21:09.596Z,3.60
2023-01-26T08:23:36.672Z,3.60
2023-01-26T08:26:08.922Z,3.60
2023-01-26T08:28:36.165Z,3.60
2023-01-26T08:31:12.656Z,3.60
2023-01-26T08:33:42.958Z,3.60
2023-01-26T08:36:12.866Z,3.60
2023-01-26T08:38:40.011Z,3.60
2023-01-26T08:41:08.936Z,3.80
2023-01-26T08:43:35.666Z,3.80
2023-01-26T08:46:03.528Z,3.90
2023-01-26T08:48:33.568Z,3.80
2023-01-26T08:51:02.213Z,3.90
2023-01-26T08:53:32.398Z,3.90
2023-01-26T08:56:05.526Z,3.80
2023-01-26T08:58:33.818Z,3.90
2023-01-26T09:01:05.045Z,3.90
2023-01-26T09:03:31.943Z,3.90
2023-01-26T09:06:05.817Z,3.90
2023-01-26T09:08:32.877Z,3.90
2023-01-26T09:10:59.949Z,3.90
2023-01-26T09:13:26.718Z,3.90
2023-01-26T09:15:53.572Z,3.90
2023-01-26T09:18:20.596Z,3.90
2023-01-26T09:20:48.891Z,3.90
2023-01-26T09:23:18.144Z,3.90
2023-01-26T09:25:46.304Z,3.90
2023-01-26T09:28:15.551Z,3.90
2023-01-26T09:30:43.173Z,3.90
2023-01-26T09:33:09.969Z,3.90
2023-01-26T09:35:37.242Z,3.90
2023-01-26T09:38:04.567Z,3.90
2023-01-26T09:41:01.530Z,3.90
2023-01-26T09:44:02.441Z,3.90
2023-01-26T09:46:50.894Z,3.90
2023-01-26T09:49:32.205Z,3.90
2023-01-26T09:52:06.281Z,3.90
2023-01-26T09:54:43.071Z,3.90
2023-01-26T09:57:17.103Z,3.90
2023-01-26T09:59:50.191Z,3.90
2023-01-26T10:02:36.253Z,3.90
2023-01-26T10:05:15.026Z,3.90
2023-01-26T10:07:46.135Z,3.90
2023-01-26T10:10:23.128Z,3.90
2023-01-26T10:12:52.075Z,3.90
2023-01-26T10:15:21.697Z,3.90
2023-01-26T10:17:50.677Z,3.90
2023-01-26T10:20:40.077Z,3.90
2023-01-26T10:23:29.956Z,3.90
2023-01-26T10:26:19.882Z,4.00
2023-01-26T10:28:50.261Z,4.00
2023-01-26T10:31:22.992Z,4.00
2023-01-26T10:34:03.235Z,4.00
2023-01-26T10:36:31.974Z,4.10
2023-01-26T10:39:10.219Z,4.00
2023-01-26T10:41:37.708Z,4.00
2023-01-26T10:44:13.231Z,4.10
2023-01-26T10:46:42.278Z,4.00
2023-01-26T10:49:08.971Z,4.00
2023-01-26T10:51:43.035Z,4.10
2023-01-26T10:54:13.546Z,4.10
2023-01-26T10:56:54.697Z,4.10
2023-01-26T10:59:33.558Z,4.10
2023-01-26T11:02:12.332Z,4.10
2023-01-26T11:04:39.963Z,4.10
2023-01-26T11:07:27.838Z,4.10
2023-01-26T11:09:55.554Z,4.10
2023-01-26T11:12:25.539Z,4.20
2023-01-26T11:15:06.342Z,4.20
2023-01-26T11:17:38.362Z,4.20
2023-01-26T11:27:46.397Z,4.30
2023-01-26T11:30:48.314Z,4.30
2023-01-26T11:33:36.174Z,4.30
2023-01-26T11:51:36.374Z,4.40
2023-01-26T11:54:09.112Z,4.40
2023-01-26T11:56:46.653Z,4.40
2023-01-26T11:59:25.184Z,4.40
2023-01-26T12:02:04.211Z,4.40
2023-01-26T12:04:36.549Z,4.40
2023-01-26T12:07:23.028Z,4.40
2023-01-26T12:09:52.769Z,4.40
2023-01-26T12:12:42.895Z,4.50
2023-01-26T12:15:19.399Z,4.50
2023-01-26T12:18:22.096Z,4.50
2023-01-26T12:21:00.656Z,4.50
2023-01-26T12:23:42.130Z,4.50
2023-01-26T12:26:18.570Z,4.50
2023-01-26T12:29:00.355Z,4.50
2023-01-26T12:31:35.866Z,4.50
2023-01-26T12:34:02.948Z,4.50
2023-01-26T12:36:51.398Z,4.50
2023-01-26T12:39:31.082Z,4.50
2023-01-26T12:42:19.315Z,4.50
2023-01-26T12:44:54.629Z,4.50
2023-01-26T12:47:40.520Z,4.50
2023-01-26T12:50:20.926Z,4.50
2023-01-26T12:53:05.489Z,4.60
2023-01-26T12:55:42.892Z,4.60
2023-01-26T12:58:23.799Z,4.50
2023-01-26T13:01:01.572Z,4.60
2023-01-26T13:03:41.909Z,4.60
2023-01-26T13:06:14.275Z,4.60
2023-01-26T13:08:53.832Z,4.60
2023-01-26T13:11:47.097Z,4.60
2023-01-26T13:14:34.473Z,4.60
2023-01-26T13:17:16.610Z,4.60
2023-01-26T13:19:43.361Z,4.60
2023-01-26T13:22:41.673Z,4.60
2023-01-26T13:25:34.311Z,4.70
2023-01-26T13:28:12.416Z,4.60
2023-01-26T13:30:43.882Z,4.60
2023-01-26T13:33:20.041Z,4.60
2023-01-26T13:35:47.474Z,4.60
2023-01-26T13:38:34.067Z,4.60
2023-01-26T13:41:03.280Z,4.60
2023-01-26T13:43:40.317Z,4.70
2023-01-26T13:46:16.482Z,4.60
2023-01-26T13:48:45.350Z,4.70
2023-01-26T13:51:19.194Z,4.70
2023-01-26T13:54:03.846Z,4.70
2023-01-26T13:56:39.114Z,4.70
2023-01-26T13:59:13.254Z,4.70
2023-01-26T14:01:45.947Z,4.70
2023-01-26T14:04:22.554Z,4.70
2023-01-26T14:06:58.509Z,4.80
2023-01-26T14:09:28.151Z,4.80
2023-01-26T14:12:03.834Z,4.70
2023-01-26T14:14:34.002Z,4.70
2023-01-26T14:17:01.707Z,4.70
2023-01-26T14:19:29.692Z,4.80
2023-01-26T14:22:00.428Z,4.80
2023-01-26T14:24:31.955Z,4.80
2023-01-26T14:27:02.576Z,4.80
2023-01-26T14:29:30.899Z,4.80
2023-01-26T14:32:00.289Z,4.80
2023-01-26T14:34:29.838Z,4.80
2023-01-26T14:37:14.152Z,4.80
2023-01-26T14:39:42.932Z,4.80
2023-01-26T14:42:14.736Z,4.80
2023-01-26T14:44:41.672Z,4.80
2023-01-26T14:47:31.758Z,4.80
2023-01-26T14:50:06.940Z,4.80
2023-01-26T14:52:39.507Z,4.80
2023-01-26T14:55:12.573Z,4.80
2023-01-26T14:57:39.739Z,4.80
2023-01-26T15:00:10.264Z,4.80
2023-01-26T15:02:42.985Z,4.80
2023-01-26T15:05:19.236Z,4.80
2023-01-26T15:07:58.516Z,4.80
2023-01-26T15:10:41.505Z,4.80
2023-01-26T15:13:10.918Z,4.80
2023-01-26T15:15:40.077Z,4.80
2023-01-26T15:18:18.486Z,4.80
2023-01-26T15:20:52.795Z,4.80
2023-01-26T15:23:27.732Z,4.80
2023-01-26T15:25:55.048Z,4.80
2023-01-26T15:28:26.051Z,4.80
2023-01-26T15:30:55.967Z,4.80
2023-01-26T15:33:44.749Z,4.80
2023-01-26T15:36:25.464Z,4.80
2023-01-26T15:39:14.438Z,4.80
2023-01-26T15:41:42.978Z,4.80
2023-01-26T15:44:27.921Z,4.80
2023-01-26T15:46:56.650Z,4.80
2023-01-26T15:49:23.515Z,4.80
2023-01-26T15:51:51.673Z,4.80
2023-01-26T15:54:19.974Z,4.80
2023-01-26T15:56:46.728Z,4.80
2023-01-26T15:59:13.534Z,4.80
2023-01-26T16:01:40.476Z,4.80
2023-01-26T16:04:12.757Z,4.80
2023-01-26T16:06:39.714Z,4.90
2023-01-26T16:09:06.461Z,4.80
2023-01-26T16:11:37.157Z,4.80
2023-01-26T16:14:04.552Z,4.80
2023-01-26T16:16:32.851Z,4.80
2023-01-26T16:18:59.758Z,4.80
2023-01-26T16:21:31.575Z,4.90
2023-01-26T16:23:58.976Z,4.90
2023-01-26T16:26:27.369Z,4.90
2023-01-26T16:28:54.822Z,5.00
2023-01-26T16:31:30.646Z,5.00
2023-01-26T16:33:58.835Z,5.00
2023-01-26T16:36:25.860Z,5.00
2023-01-26T16:38:53.032Z,5.10
2023-01-26T16:41:31.679Z,5.00
2023-01-26T16:44:00.433Z,5.00
2023-01-26T16:46:29.379Z,5.10
2023-01-26T16:48:56.879Z,5.10
2023-01-26T16:51:32.528Z,5.10
2023-01-26T16:53:59.424Z,5.10
2023-01-26T16:56:26.251Z,5.10
2023-01-26T16:58:53.031Z,5.10
2023-01-26T17:01:28.487Z,5.10
2023-01-26T17:03:56.061Z,5.10
2023-01-26T17:06:23.639Z,5.10
2023-01-26T17:08:50.646Z,5.10
2023-01-26T17:11:22.928Z,5.10
2023-01-26T17:13:50.029Z,5.10
2023-01-26T17:16:20.101Z,5.10
2023-01-26T17:18:48.273Z,5.10
2023-01-26T17:21:17.411Z,5.10
2023-01-26T17:23:48.877Z,5.10
2023-01-26T17:26:17.188Z,5.10
2023-01-26T17:28:45.235Z,5.10
2023-01-26T17:31:17.550Z,5.10
2023-01-26T17:33:46.378Z,5.10
2023-01-26T17:36:14.105Z,5.10
2023-01-26T17:38:41.191Z,5.10
2023-01-26T17:41:08.275Z,5.10
2023-01-26T17:43:35.083Z,5.10
2023-01-26T17:46:07.777Z,5.10
2023-01-26T17:48:40.000Z,5.10
2023-01-26T17:51:08.974Z,5.10
2023-01-26T17:53:40.175Z,5.10
2023-01-26T17:56:09.437Z,5.10
2023-01-26T17:58:37.041Z,5.10
2023-01-26T18:01:05.123Z,5.10
2023-01-26T18:03:32.190Z,5.20
2023-01-26T18:05:59.247Z,5.10
2023-01-26T18:08:26.816Z,5.20
2023-01-26T18:11:04.970Z,5.10
2023-01-26T18:13:32.635Z,5.20
2023-01-26T18:16:00.276Z,5.20
2023-01-26T18:18:29.407Z,5.20
2023-01-26T18:20:56.716Z,5.20
2023-01-26T18:23:24.527Z,5.30
2023-01-26T18:25:51.768Z,5.30
2023-01-26T18:28:18.731Z,5.30
2023-01-26T18:30:45.554Z,5.30
2023-01-26T18:33:12.300Z,5.30
2023-01-26T18:35:39.072Z,5.30
2023-01-26T18:38:05.808Z,5.30
2023-01-26T18:40:32.759Z,5.30
2023-01-26T18:42:59.492Z,5.30
2023-01-26T18:45:26.372Z,5.30
2023-01-26T18:47:53.078Z,5.40
2023-01-26T18:50:19.923Z,5.40
2023-01-26T18:52:46.723Z,5.40
2023-01-26T18:55:13.899Z,5.40
2023-01-26T18:57:40.941Z,5.40
2023-01-26T19:00:09.160Z,5.50
2023-01-26T19:02:38.820Z,5.50
2023-01-26T19:05:06.987Z,5.50
2023-01-26T19:07:34.197Z,5.50
2023-01-26T19:10:01.023Z,5.50
2023-01-26T19:12:27.802Z,5.50
2023-01-26T19:14:54.517Z,5.50
2023-01-26T19:17:21.340Z,5.50
2023-01-26T19:19:48.148Z,5.50
2023-01-26T19:22:14.946Z,5.50
2023-01-26T19:24:43.066Z,5.50
2023-01-26T19:27:10.612Z,5.60
2023-01-26T19:29:37.350Z,5.50
2023-01-26T19:32:04.553Z,5.50
2023-01-26T19:34:32.277Z,5.60
2023-01-26T19:36:59.482Z,5.60
2023-01-26T19:39:26.338Z,5.60
2023-01-26T19:41:53.255Z,5.60
2023-01-26T19:44:20.013Z,5.60
2023-01-26T19:46:49.699Z,5.60
2023-01-26T19:49:17.509Z,5.60
2023-01-26T19:51:44.283Z,5.60
2023-01-26T19:54:14.772Z,5.60
2023-01-26T19:56:42.735Z,5.70
2023-01-26T19:59:11.591Z,5.60
2023-01-26T20:01:38.652Z,5.70
2023-01-26T20:04:10.616Z,5.60
2023-01-26T20:06:37.988Z,5.60
2023-01-26T20:09:06.769Z,5.60
2023-01-26T20:11:34.280Z,5.70
2023-01-26T20:14:04.252Z,5.70
2023-01-26T20:16:31.967Z,5.70
2023-01-26T20:18:59.683Z,5.70
2023-01-26T20:21:28.313Z,5.70
2023-01-26T20:23:56.208Z,5.70
2023-01-26T20:26:26.692Z,5.70
2023-01-26T20:28:56.923Z,5.70
2023-01-26T20:31:26.728Z,5.80
2023-01-26T20:33:54.530Z,5.70
2023-01-26T20:36:24.843Z,5.80
2023-01-26T20:38:51.716Z,5.80
2023-01-26T20:41:24.168Z,5.80
2023-01-26T20:44:00.797Z,5.80
2023-01-26T20:46:34.575Z,5.80
2023-01-26T20:49:02.090Z,5.80
2023-01-26T20:51:34.040Z,5.80
2023-01-26T20:54:01.021Z,5.80
2023-01-26T20:56:28.115Z,5.80
2023-01-26T20:58:55.942Z,5.80
2023-01-26T21:01:23.771Z,5.80
2023-01-26T21:03:51.258Z,5.80
2023-01-26T21:06:19.696Z,5.80
2023-01-26T21:08:52.556Z,5.80
2023-01-26T21:11:19.843Z,5.80
2023-01-26T21:13:46.668Z,5.90
2023-01-26T21:16:15.922Z,5.90
2023-01-26T21:18:43.044Z,5.90
2023-01-26T21:21:12.902Z,5.90
2023-01-26T21:23:39.755Z,5.90
2023-01-26T21:26:10.146Z,5.80
2023-01-26T21:28:37.335Z,5.90
2023-01-26T21:31:09.792Z,5.90
2023-01-26T21:33:40.057Z,5.90
2023-01-26T21:36:08.792Z,5.90
2023-01-26T21:38:41.238Z,5.90
2023-01-26T21:41:29.579Z,5.90
2023-01-26T21:43:57.442Z,5.90
2023-01-26T21:46:24.284Z,5.90
2023-01-26T21:48:51.341Z,5.90
2023-01-26T21:51:37.319Z,5.90
2023-01-26T21:54:06.909Z,5.90
2023-01-26T21:56:34.822Z,5.90
2023-01-26T21:59:04.645Z,5.90
2023-01-26T22:01:33.154Z,5.90
2023-01-26T22:04:02.274Z,5.90
2023-01-26T22:06:30.310Z,5.90
2023-01-26T22:09:00.196Z,5.90
2023-01-26T22:11:27.524Z,5.90
2023-01-26T22:13:54.540Z,6.00
2023-01-26T22:16:21.816Z,6.00
2023-01-26T22:18:49.210Z,6.00
2023-01-26T22:21:17.071Z,6.00
2023-01-26T22:23:44.220Z,6.00
2023-01-26T22:26:21.969Z,6.00
2023-01-26T22:28:57.177Z,6.00
2023-01-26T22:31:27.412Z,6.00
2023-01-26T22:33:55.199Z,6.00
2023-01-26T22:36:22.783Z,6.00
2023-01-26T22:38:50.395Z,6.00
2023-01-26T22:41:25.808Z,6.00
2023-01-26T22:43:56.306Z,6.00
2023-01-26T22:46:24.907Z,6.00
2023-01-26T22:48:51.957Z,6.00
2023-01-26T22:51:23.886Z,6.00
2023-01-26T22:53:52.837Z,6.00
2023-01-26T22:56:20.329Z,6.00
2023-01-26T22:58:59.917Z,6.00
2023-01-26T23:01:33.058Z,6.00
2023-01-26T23:04:01.935Z,6.00
2023-01-26T23:06:29.350Z,6.10
2023-01-26T23:08:58.581Z,6.10
2023-01-26T23:11:28.392Z,6.10
2023-01-26T23:13:57.060Z,6.10
2023-01-26T23:16:24.932Z,6.10
2023-01-26T23:18:53.826Z,6.10
2023-01-26T23:21:21.639Z,6.10
2023-01-26T23:23:48.882Z,6.10
2023-01-26T23:26:16.082Z,6.10
2023-01-26T23:28:43.912Z,6.10
2023-01-26T23:31:12.737Z,6.10
2023-01-26T23:33:40.216Z,6.20
2023-01-26T23:36:09.591Z,6.20
2023-01-26T23:38:36.702Z,6.20
2023-01-26T23:41:20.556Z,6.20
2023-01-26T23:43:47.610Z,6.20
2023-01-26T23:46:14.668Z,6.20
2023-01-26T23:48:42.573Z,6.20
2023-01-26T23:51:12.429Z,6.20
2023-01-26T23:53:39.850Z,6.30
2023-01-26T23:56:11.325Z,6.30
2023-01-26T23:58:38.670Z,6.30
